Airfield :
LOGIN :

Register | Disclaimer

   EN    FR    IT 

 










Legend :    VFR   Marginal VFR   IFR   Intensive IFR   Very Intensive IFR
Visi :
Ceiling :
>= 8 km
>= 3000ft
5 to 8 km
1000 to 3000 ft
1500m to 5 km
500 to 1000 ft
800 to 1500m
200 to 500 ft
< 800m
< 200 ft
Symbols :   Thunderstorms  Fog  Heavy snow  Heavy precipitations  Wind > 20 kt
SIGMETs :     Misc.  Thunderstorms  Icing  Turbulence  Mountain Waves  Volcanic Ashes






- Airport Elevation : 63 ft
- IATA code : BZM


EHWO - Woensdrecht Airbase

CURRENT METAR :
  • 241455Z AUTO 19004KT 2000 BR OVC003 02/01 Q1022 YLO

EXPIRED METARs :
  • 241437Z AUTO 18004KT 160V220 1900 R25/1400N BR OVC002 02/02 Q1022 AMB
  • 241425Z AUTO 16004KT 130V230 1700 R25/1700N BR BKN002 OVC004 02/01 Q1022 AMB 20003KT 3000 BR BKN003 OVC004
  • 241355Z AUTO 19004KT 150V210 2700 R25/2200U BR SCT003 BKN004 OVC005 02/02 Q1023 YLO 20003KT 3000 BR BKN003 OVC004
  • 241325Z AUTO 18005KT 140V230 2600 R25/1900N BR FEW002 BKN004 OVC005 02/02 Q1023 YLO 20003KT 3000 BR BKN003 OVC004
  • 241255Z AUTO VRB02KT 3200 R25/2000N BR OVC002 02/02 Q1023 AMB 20003KT 3000 BR BKN003 OVC004
  • 241238Z AUTO VRB02KT 3400 R25/2300D BR BKN002 OVC003 02/02 Q1023 AMB 20003KT 3000 BR BKN003 OVC004
  • 241225Z AUTO 19003KT 160V260 4200 BR BKN003 OVC005 02/01 Q1023 YLO 20003KT 3000 BR BKN003 OVC004

TAF TAF EHWO
Valid from the 24 at 10:00 until the 24 at 22:00 UTC


240919Z 2410/2422 25005KT 2000 BR SCT002 BKN003
BECMG 2410/2412 4500 BR BKN005
BECMG 2412/2415 9999 NSW FEW008 SCT015
PROB40
TEMPO 2412/2418 BKN008
BECMG 2418/2421 4000 BR SCT008 BKN012
PROB30 2420/2422 0800 FG FZFG OVC001



MET'MAP, your aeronautical weather chart ! - Copyright ORBIFLY December 2007 - Disclaimer

ORBIFLY MET'MAP TEAM :

Programming & Development : Alexandra Zaïnal
Concept & original design : Baudouin d'Aumeries
Assistance for programming : Marc-Olivier Méhu
Technical & hardware support : Manuel Goepfert

Contact : metmap@orbifly.com




SOURCES & CREDITS :

   NOAA